createdAt,value
2022-10-03T00:01:38.669Z,30.37
2022-10-03T00:04:19.130Z,29.63
2022-10-03T00:06:58.842Z,29.40
2022-10-03T00:09:43.126Z,32.50
2022-10-03T00:12:19.866Z,29.83
2022-10-03T00:15:00.942Z,29.93
2022-10-03T00:17:42.733Z,29.60
2022-10-03T00:20:35.453Z,30.40
2022-10-03T00:23:09.055Z,28.27
2022-10-03T00:25:50.217Z,28.40
2022-10-03T00:28:29.958Z,28.77
2022-10-03T00:31:10.067Z,29.03
2022-10-03T00:33:51.118Z,29.90
2022-10-03T00:36:28.554Z,28.87
2022-10-03T00:39:21.873Z,29.07
2022-10-03T00:42:14.850Z,29.03
2022-10-03T00:45:21.378Z,30.90
2022-10-03T00:48:24.559Z,29.73
2022-10-03T00:51:08.006Z,29.73
2022-10-03T00:53:49.418Z,29.90
2022-10-03T00:56:43.844Z,30.50
2022-10-03T00:59:26.630Z,29.00
2022-10-03T01:01:55.104Z,29.43
2022-10-03T01:04:45.193Z,29.83
2022-10-03T01:07:28.750Z,29.57
2022-10-03T01:10:09.456Z,29.40
2022-10-03T01:12:55.960Z,29.57
2022-10-03T01:15:32.057Z,28.17
2022-10-03T01:18:16.821Z,29.50
2022-10-03T01:20:55.478Z,28.93
2022-10-03T01:23:44.190Z,30.00
2022-10-03T01:26:28.411Z,29.40
2022-10-03T01:29:20.538Z,29.80
2022-10-03T01:31:54.341Z,30.20
2022-10-03T01:34:28.769Z,30.60
2022-10-03T01:37:08.537Z,29.43
2022-10-03T01:39:43.575Z,29.17
2022-10-03T01:42:17.247Z,30.63
2022-10-03T01:45:01.451Z,30.50
2022-10-03T01:47:37.530Z,30.10
2022-10-03T01:50:14.001Z,31.70
2022-10-03T01:52:50.034Z,30.20
2022-10-03T01:55:24.535Z,29.70
2022-10-03T01:58:00.941Z,30.40
2022-10-03T02:00:38.175Z,29.90
2022-10-03T02:03:12.159Z,28.23
2022-10-03T02:05:49.871Z,27.40
2022-10-03T02:08:31.163Z,27.20
2022-10-03T02:11:02.657Z,30.27
2022-10-03T02:13:42.253Z,28.90
2022-10-03T02:16:16.469Z,29.60
2022-10-03T02:18:52.062Z,29.00
2022-10-03T02:21:21.933Z,28.77
2022-10-03T02:23:53.129Z,28.53
2022-10-03T02:26:58.670Z,29.60
2022-10-03T02:29:52.306Z,28.50
2022-10-03T02:33:11.302Z,29.27
2022-10-03T02:36:06.154Z,29.10
2022-10-03T02:38:51.016Z,30.00
2022-10-03T02:41:48.325Z,30.67
2022-10-03T02:44:43.142Z,29.70
2022-10-03T02:47:39.618Z,30.60
2022-10-03T02:50:45.566Z,29.90
2022-10-03T02:54:00.143Z,28.13
2022-10-03T02:57:10.402Z,31.43
2022-10-03T03:00:06.167Z,30.40
2022-10-03T03:03:02.710Z,30.70
2022-10-03T03:05:45.494Z,30.20
2022-10-03T03:08:33.688Z,30.20
2022-10-03T03:11:27.753Z,29.50
2022-10-03T03:14:43.125Z,29.20
2022-10-03T03:17:26.220Z,29.13
2022-10-03T03:20:29.400Z,28.10
2022-10-03T03:23:21.884Z,28.50
2022-10-03T03:26:11.771Z,28.83
2022-10-03T03:28:54.884Z,29.00
2022-10-03T03:31:30.712Z,29.73
2022-10-03T03:34:10.483Z,29.97
2022-10-03T03:36:42.778Z,28.20
2022-10-03T03:39:25.300Z,28.13
2022-10-03T03:42:09.377Z,27.40
2022-10-03T03:45:19.244Z,28.83
2022-10-03T03:48:04.864Z,27.20
2022-10-03T03:50:48.441Z,27.70
2022-10-03T03:53:53.897Z,26.90
2022-10-03T03:56:47.698Z,27.57
2022-10-03T03:59:28.886Z,26.50
2022-10-03T04:02:11.484Z,26.70
2022-10-03T04:05:01.917Z,27.00
2022-10-03T04:07:44.370Z,26.53
2022-10-03T04:10:27.907Z,26.20
2022-10-03T04:13:24.304Z,26.50
2022-10-03T04:16:11.968Z,25.83
2022-10-03T04:19:00.844Z,25.93
2022-10-03T04:21:45.483Z,26.30
2022-10-03T04:24:33.784Z,25.90
2022-10-03T04:27:27.194Z,25.60
2022-10-03T04:30:06.130Z,25.33
2022-10-03T04:32:58.450Z,24.90
2022-10-03T04:35:44.930Z,25.90
2022-10-03T04:38:21.187Z,26.43
2022-10-03T04:40:56.365Z,25.90
2022-10-03T04:43:38.686Z,25.10
2022-10-03T04:46:20.579Z,25.50
2022-10-03T04:48:57.261Z,25.00
2022-10-03T04:51:42.067Z,25.20
2022-10-03T04:54:21.365Z,25.73
2022-10-03T04:56:57.247Z,25.73
2022-10-03T04:59:37.761Z,25.60
2022-10-03T05:02:17.399Z,26.00
2022-10-03T05:05:00.151Z,25.93
2022-10-03T05:07:41.516Z,27.10
2022-10-03T05:10:27.360Z,26.80
2022-10-03T05:13:03.441Z,27.00
2022-10-03T05:15:36.139Z,27.27
2022-10-03T05:18:15.115Z,26.07
2022-10-03T05:20:54.164Z,25.30
2022-10-03T05:23:41.703Z,26.10
2022-10-03T05:26:43.730Z,26.40
2022-10-03T05:29:16.117Z,26.03
2022-10-03T05:31:50.998Z,27.10
2022-10-03T05:34:29.967Z,26.37
2022-10-03T05:37:21.697Z,26.00
2022-10-03T05:39:59.829Z,25.60
2022-10-03T05:42:38.015Z,25.60
2022-10-03T05:45:21.618Z,25.53
2022-10-03T05:47:52.947Z,25.43
2022-10-03T05:51:13.269Z,25.70
2022-10-03T05:54:06.622Z,26.40
2022-10-03T05:56:57.988Z,25.20
2022-10-03T05:59:43.994Z,24.90
2022-10-03T06:02:36.863Z,25.00
2022-10-03T06:05:25.714Z,25.50
2022-10-03T06:08:20.861Z,25.20
2022-10-03T06:10:53.208Z,25.20
2022-10-03T06:13:38.482Z,26.13
2022-10-03T06:16:22.980Z,25.93
2022-10-03T06:19:11.554Z,26.43
2022-10-03T06:22:29.762Z,27.50
2022-10-03T06:25:32.285Z,26.30
2022-10-03T06:28:30.976Z,26.00
2022-10-03T06:31:22.404Z,26.53
2022-10-03T06:34:08.201Z,26.57
2022-10-03T06:37:01.088Z,26.90
2022-10-03T06:39:57.637Z,26.90
2022-10-03T06:42:53.752Z,26.43
2022-10-03T06:45:50.570Z,25.60
2022-10-03T06:48:41.861Z,25.30
2022-10-03T06:52:03.991Z,26.20
2022-10-03T06:55:32.858Z,26.30
2022-10-03T06:58:30.709Z,25.17
2022-10-03T07:01:20.107Z,25.60
2022-10-03T07:04:07.615Z,26.43
2022-10-03T07:06:50.057Z,27.40
2022-10-03T07:09:54.694Z,27.37
2022-10-03T07:13:06.938Z,26.77
2022-10-03T07:16:20.944Z,26.60
2022-10-03T07:19:16.038Z,25.63
2022-10-03T07:22:18.618Z,27.23
2022-10-03T07:25:26.636Z,27.30
2022-10-03T07:28:07.593Z,27.80
2022-10-03T07:30:54.560Z,28.30
2022-10-03T07:33:40.690Z,27.57
2022-10-03T07:37:01.975Z,27.67
2022-10-03T07:40:03.186Z,26.70
2022-10-03T07:43:12.727Z,26.30
2022-10-03T07:45:45.746Z,26.90
2022-10-03T07:48:58.070Z,27.73
2022-10-03T07:51:35.500Z,27.03
2022-10-03T07:54:29.723Z,27.47
2022-10-03T07:57:48.150Z,26.17
2022-10-03T08:00:26.259Z,27.47
2022-10-03T08:03:33.309Z,28.13
2022-10-03T08:06:17.470Z,27.83
2022-10-03T08:09:03.067Z,28.83
2022-10-03T08:11:45.696Z,27.50
2022-10-03T08:14:20.151Z,28.43
2022-10-03T08:17:07.552Z,26.83
2022-10-03T08:19:53.603Z,28.00
2022-10-03T08:22:32.385Z,47.87
2022-10-03T08:25:26.982Z,28.50
2022-10-03T08:28:19.855Z,28.50
2022-10-03T08:31:11.986Z,29.83
2022-10-03T08:34:42.565Z,32.83
2022-10-03T08:37:30.465Z,35.03
2022-10-03T08:40:39.589Z,34.33
2022-10-03T08:43:43.683Z,27.30
2022-10-03T08:46:36.924Z,27.77
2022-10-03T08:49:36.762Z,27.50
2022-10-03T08:52:21.360Z,27.63
2022-10-03T08:55:22.785Z,26.30
2022-10-03T08:58:09.739Z,27.30
2022-10-03T09:00:57.202Z,27.60
2022-10-03T09:04:04.709Z,27.07
2022-10-03T09:07:20.298Z,26.10
2022-10-03T09:10:21.878Z,26.53
2022-10-03T09:13:21.175Z,24.97
2022-10-03T09:16:24.149Z,24.80
2022-10-03T09:19:12.474Z,24.70
2022-10-03T09:22:11.533Z,25.17
2022-10-03T09:25:06.175Z,24.80
2022-10-03T09:27:59.649Z,24.97
2022-10-03T09:30:46.082Z,25.27
2022-10-03T09:33:51.634Z,26.00
2022-10-03T09:36:46.769Z,23.13
2022-10-03T09:39:40.806Z,21.97
2022-10-03T09:42:43.458Z,22.57
2022-10-03T09:45:37.240Z,23.17
2022-10-03T09:48:27.949Z,23.97
2022-10-03T09:51:20.139Z,22.67
2022-10-03T09:54:22.236Z,23.07
2022-10-03T09:57:38.406Z,22.53
2022-10-03T10:00:31.654Z,22.60
2022-10-03T10:03:37.644Z,22.10
2022-10-03T10:06:24.928Z,21.80
2022-10-03T10:09:40.798Z,21.80
2022-10-03T10:12:44.382Z,18.90
2022-10-03T10:15:58.796Z,18.57
2022-10-03T10:18:39.084Z,18.50
2022-10-03T10:21:41.974Z,17.73
2022-10-03T10:24:55.043Z,18.03
2022-10-03T10:28:01.868Z,17.50
2022-10-03T10:30:52.356Z,17.97
2022-10-03T10:33:59.705Z,18.33
2022-10-03T10:37:07.570Z,19.67
2022-10-03T10:40:02.861Z,18.70
2022-10-03T10:43:11.601Z,19.47
2022-10-03T10:46:27.331Z,18.40
2022-10-03T10:49:30.906Z,18.10
2022-10-03T10:52:34.717Z,17.30
2022-10-03T10:55:48.464Z,17.40
2022-10-03T10:59:12.392Z,16.43
2022-10-03T11:02:16.986Z,17.63
2022-10-03T11:05:24.341Z,16.90
2022-10-03T11:08:24.921Z,16.57
2022-10-03T11:11:27.669Z,15.20
2022-10-03T11:14:35.214Z,15.40
2022-10-03T11:17:53.657Z,16.50
2022-10-03T11:21:05.699Z,19.53
2022-10-03T11:24:14.673Z,17.90
2022-10-03T11:27:23.546Z,17.73
2022-10-03T11:30:08.615Z,17.90
2022-10-03T11:33:14.897Z,18.10
2022-10-03T11:36:32.847Z,17.93
2022-10-03T11:39:05.473Z,17.57
2022-10-03T11:41:54.572Z,17.57
2022-10-03T11:44:27.469Z,16.70
2022-10-03T11:47:16.022Z,16.77
2022-10-03T11:50:04.311Z,17.20
2022-10-03T11:52:36.870Z,15.40
2022-10-03T11:55:24.427Z,15.10
2022-10-03T11:58:04.702Z,14.60
2022-10-03T12:00:36.398Z,15.23
2022-10-03T12:03:19.849Z,14.57
2022-10-03T12:06:14.326Z,14.00
2022-10-03T12:08:56.453Z,13.80
2022-10-03T12:11:28.310Z,13.30
2022-10-03T12:14:13.682Z,13.80
2022-10-03T12:16:58.433Z,14.00
2022-10-03T12:19:32.408Z,14.60
2022-10-03T12:22:10.834Z,13.70
2022-10-03T12:24:41.163Z,12.53
2022-10-03T12:27:21.250Z,11.80
2022-10-03T12:29:58.591Z,12.70
2022-10-03T12:32:44.022Z,12.30
2022-10-03T12:35:34.127Z,12.70
2022-10-03T12:38:22.523Z,12.60
2022-10-03T12:41:02.494Z,11.47
2022-10-03T12:43:42.730Z,11.10
2022-10-03T12:46:16.629Z,11.40
2022-10-03T12:48:50.377Z,11.77
2022-10-03T12:51:36.502Z,10.67
2022-10-03T12:54:16.722Z,11.10
2022-10-03T12:56:49.554Z,11.37
2022-10-03T12:59:28.186Z,10.53
2022-10-03T13:02:22.826Z,10.90
2022-10-03T13:05:03.987Z,10.73
2022-10-03T13:07:42.833Z,11.57
2022-10-03T13:10:23.324Z,12.60
2022-10-03T13:12:55.668Z,12.10
2022-10-03T13:15:45.293Z,12.37
2022-10-03T13:18:33.175Z,10.60
2022-10-03T13:21:33.319Z,10.20
2022-10-03T13:24:01.054Z,9.80
2022-10-03T13:26:47.564Z,9.30
2022-10-03T13:29:29.982Z,9.37
2022-10-03T13:32:08.245Z,9.40
2022-10-03T13:34:57.589Z,9.40
2022-10-03T13:37:33.634Z,9.27
2022-10-03T13:40:09.061Z,10.20
2022-10-03T13:42:45.207Z,9.50
2022-10-03T13:45:16.514Z,9.90
2022-10-03T13:47:47.903Z,9.53
2022-10-03T13:50:19.821Z,9.33
2022-10-03T13:52:53.237Z,9.50
2022-10-03T13:55:42.145Z,8.70
2022-10-03T13:58:41.795Z,9.13
2022-10-03T14:01:38.431Z,9.30
2022-10-03T14:04:36.263Z,8.77
2022-10-03T14:07:13.133Z,8.50
2022-10-03T14:09:57.863Z,8.80
2022-10-03T14:12:54.464Z,8.23
2022-10-03T14:15:36.192Z,7.63
2022-10-03T14:18:15.769Z,7.20
2022-10-03T14:21:23.694Z,7.50
2022-10-03T14:23:59.478Z,7.90
2022-10-03T14:26:33.903Z,7.53
2022-10-03T14:29:09.214Z,7.93
2022-10-03T14:31:44.747Z,8.97
2022-10-03T14:34:24.278Z,7.60
2022-10-03T14:36:59.172Z,8.30
2022-10-03T14:39:36.849Z,8.70
2022-10-03T14:42:32.637Z,9.57
2022-10-03T14:45:07.783Z,8.70
2022-10-03T14:47:37.590Z,9.70
2022-10-03T14:50:06.781Z,9.80
2022-10-03T14:52:41.391Z,9.70
2022-10-03T14:55:16.158Z,10.07
2022-10-03T14:58:09.401Z,9.53
2022-10-03T15:00:43.601Z,9.50
2022-10-03T15:03:22.459Z,9.80
2022-10-03T15:05:59.230Z,10.13
2022-10-03T15:08:35.842Z,10.73
2022-10-03T15:11:07.036Z,10.70
2022-10-03T15:13:42.255Z,11.23
2022-10-03T15:16:14.520Z,11.20
2022-10-03T15:18:52.538Z,11.00
2022-10-03T15:21:20.618Z,11.10
2022-10-03T15:23:55.471Z,11.47
2022-10-03T15:26:25.993Z,12.00
2022-10-03T15:28:59.274Z,12.60
2022-10-03T15:31:36.184Z,12.67
2022-10-03T15:34:08.070Z,13.43
2022-10-03T15:36:39.049Z,13.40
2022-10-03T15:39:17.393Z,13.13
2022-10-03T15:41:55.315Z,13.67
2022-10-03T15:44:28.926Z,13.60
2022-10-03T15:47:01.830Z,12.50
2022-10-03T15:49:33.858Z,11.97
2022-10-03T15:52:14.281Z,11.70
2022-10-03T15:54:47.257Z,11.67
2022-10-03T15:57:25.393Z,11.40
2022-10-03T15:59:59.310Z,10.93
2022-10-03T16:02:35.082Z,11.93
2022-10-03T16:05:05.591Z,11.50
2022-10-03T16:07:41.685Z,11.80
2022-10-03T16:10:20.432Z,13.00
2022-10-03T16:12:58.365Z,13.20
2022-10-03T16:15:37.689Z,13.40
2022-10-03T16:18:11.617Z,14.23
2022-10-03T16:20:42.132Z,14.17
2022-10-03T16:23:18.559Z,14.47
2022-10-03T16:25:50.098Z,15.30
2022-10-03T16:28:22.679Z,15.50
2022-10-03T16:30:58.025Z,16.33
2022-10-03T16:33:31.029Z,17.70
2022-10-03T16:36:01.842Z,17.50
2022-10-03T16:38:35.974Z,17.50
2022-10-03T16:41:06.914Z,18.00
2022-10-03T16:43:35.850Z,18.50
2022-10-03T16:46:10.353Z,17.70
2022-10-03T16:49:00.642Z,18.90
2022-10-03T16:51:37.984Z,18.83
2022-10-03T16:54:07.222Z,19.53
2022-10-03T16:56:41.358Z,20.20
2022-10-03T16:59:17.651Z,21.23
2022-10-03T17:01:50.854Z,24.50
2022-10-03T17:04:24.002Z,27.33
2022-10-03T17:06:53.766Z,28.47
2022-10-03T17:09:31.794Z,28.53
2022-10-03T17:12:00.962Z,28.83
2022-10-03T17:14:37.035Z,29.57
2022-10-03T17:17:08.598Z,33.57
2022-10-03T17:19:40.906Z,28.90
2022-10-03T17:22:16.819Z,29.20
2022-10-03T17:24:49.376Z,30.00
2022-10-03T17:27:24.910Z,31.83
2022-10-03T17:30:00.779Z,32.23
2022-10-03T17:32:36.114Z,31.47
2022-10-03T17:35:11.502Z,31.20
2022-10-03T17:38:30.513Z,30.87
2022-10-03T17:41:13.180Z,30.50
2022-10-03T17:43:46.540Z,30.80
2022-10-03T17:46:21.124Z,31.57
2022-10-03T17:48:57.444Z,30.77
2022-10-03T17:51:37.506Z,30.30
2022-10-03T17:54:15.023Z,31.50
2022-10-03T17:56:46.191Z,31.73
2022-10-03T17:59:19.450Z,31.20
2022-10-03T18:01:52.988Z,32.20
2022-10-03T18:04:28.133Z,32.83
2022-10-03T18:06:59.677Z,31.70
2022-10-03T18:09:32.113Z,30.53
2022-10-03T18:12:17.042Z,31.07
2022-10-03T18:15:01.341Z,30.27
2022-10-03T18:17:41.126Z,29.37
2022-10-03T18:20:27.737Z,31.47
2022-10-03T18:23:00.561Z,29.23
2022-10-03T18:26:14.984Z,31.53
2022-10-03T18:28:44.777Z,30.37
2022-10-03T18:31:17.606Z,30.03
2022-10-03T18:33:51.047Z,29.40
2022-10-03T18:36:23.891Z,30.40
2022-10-03T18:38:55.713Z,29.50
2022-10-03T18:41:23.291Z,29.57
2022-10-03T18:43:58.648Z,29.27
2022-10-03T18:46:30.811Z,29.47
2022-10-03T18:49:30.106Z,29.80
2022-10-03T18:51:57.963Z,29.53
2022-10-03T18:54:35.447Z,29.30
2022-10-03T18:57:08.713Z,30.53
2022-10-03T18:59:45.749Z,29.77
2022-10-03T19:02:22.271Z,29.43
2022-10-03T19:04:56.154Z,29.70
2022-10-03T19:07:26.064Z,28.90
2022-10-03T19:10:28.692Z,29.53
2022-10-03T19:13:02.857Z,29.10
2022-10-03T19:15:43.838Z,29.50
2022-10-03T19:18:22.543Z,28.43
2022-10-03T19:20:54.654Z,28.83
2022-10-03T19:23:27.277Z,29.53
2022-10-03T19:25:58.703Z,29.13
2022-10-03T19:28:31.179Z,28.47
2022-10-03T19:31:05.592Z,29.10
2022-10-03T19:33:43.513Z,29.00
2022-10-03T19:36:17.827Z,28.97
2022-10-03T19:38:48.725Z,27.17
2022-10-03T19:41:26.766Z,28.03
2022-10-03T19:43:55.443Z,30.43
2022-10-03T19:46:47.312Z,28.00
2022-10-03T19:49:31.179Z,30.67
2022-10-03T19:52:17.317Z,27.90
2022-10-03T19:54:51.616Z,27.63
2022-10-03T19:57:21.823Z,28.20
2022-10-03T19:59:53.397Z,27.90
2022-10-03T20:02:26.684Z,27.20
2022-10-03T20:04:57.310Z,26.93
2022-10-03T20:07:46.354Z,27.03
2022-10-03T20:10:37.181Z,27.47
2022-10-03T20:13:05.063Z,28.00
2022-10-03T20:15:39.200Z,27.17
2022-10-03T20:18:07.783Z,28.10
2022-10-03T20:20:35.781Z,28.97
2022-10-03T20:23:06.884Z,28.10
2022-10-03T20:25:39.371Z,26.43
2022-10-03T20:28:17.380Z,26.10
2022-10-03T20:30:48.305Z,26.37
2022-10-03T20:33:19.810Z,27.60
2022-10-03T20:35:55.758Z,27.83
2022-10-03T20:38:39.910Z,26.70
2022-10-03T20:41:12.573Z,26.70
2022-10-03T20:43:44.324Z,26.33
2022-10-03T20:46:21.710Z,26.53
2022-10-03T20:49:27.238Z,26.30
2022-10-03T20:52:00.191Z,26.83
2022-10-03T20:54:35.268Z,26.20
2022-10-03T20:57:06.882Z,27.63
2022-10-03T20:59:42.778Z,26.20
2022-10-03T21:02:23.137Z,26.00
2022-10-03T21:04:55.470Z,26.53
2022-10-03T21:07:38.266Z,26.60
2022-10-03T21:10:25.653Z,26.73
2022-10-03T21:12:56.517Z,25.30
2022-10-03T21:15:37.702Z,26.10
2022-10-03T21:18:06.293Z,26.50
2022-10-03T21:20:38.634Z,26.73
2022-10-03T21:23:15.485Z,27.57
2022-10-03T21:25:45.230Z,27.30
2022-10-03T21:28:32.097Z,26.97
2022-10-03T21:31:15.016Z,27.00
2022-10-03T21:33:51.850Z,25.90
2022-10-03T21:36:26.747Z,26.17
2022-10-03T21:39:07.803Z,25.57
2022-10-03T21:41:47.214Z,27.23
2022-10-03T21:44:35.949Z,26.57
2022-10-03T21:47:17.947Z,27.13
2022-10-03T21:49:54.303Z,26.67
2022-10-03T21:52:50.542Z,26.33
2022-10-03T21:55:51.259Z,27.57
2022-10-03T21:58:34.434Z,27.07
2022-10-03T22:01:11.951Z,28.07
2022-10-03T22:03:44.154Z,26.00
2022-10-03T22:06:20.079Z,25.80
2022-10-03T22:08:49.519Z,26.73
2022-10-03T22:11:26.299Z,26.53
2022-10-03T22:14:03.529Z,26.00
2022-10-03T22:16:38.702Z,25.57
2022-10-03T22:19:28.376Z,25.70
2022-10-03T22:22:09.101Z,26.03
2022-10-03T22:24:46.637Z,26.03
2022-10-03T22:27:21.013Z,25.50
2022-10-03T22:29:59.840Z,25.93
2022-10-03T22:32:34.092Z,25.83
2022-10-03T22:35:10.015Z,26.40
2022-10-03T22:37:38.933Z,25.77
2022-10-03T22:40:08.278Z,26.60
2022-10-03T22:42:43.368Z,25.80
2022-10-03T22:45:16.232Z,26.83
2022-10-03T22:47:48.573Z,25.63
2022-10-03T22:50:19.921Z,26.90
2022-10-03T22:52:51.795Z,27.80
2022-10-03T22:55:23.024Z,26.30
2022-10-03T22:57:52.575Z,26.77
2022-10-03T23:00:25.010Z,28.37
2022-10-03T23:03:04.925Z,28.80
2022-10-03T23:05:49.963Z,28.70
2022-10-03T23:08:28.487Z,29.23
2022-10-03T23:11:01.301Z,28.13
2022-10-03T23:13:36.354Z,27.90
2022-10-03T23:16:17.121Z,27.50
2022-10-03T23:19:11.606Z,33.13
2022-10-03T23:21:46.102Z,34.10
2022-10-03T23:24:22.218Z,32.17
2022-10-03T23:27:24.509Z,68.70
2022-10-03T23:30:29.693Z,28.10
2022-10-03T23:33:00.430Z,27.17
2022-10-03T23:35:40.993Z,26.73
2022-10-03T23:38:41.637Z,27.47
2022-10-03T23:41:13.675Z,26.00
2022-10-03T23:43:49.897Z,26.70
2022-10-03T23:46:20.093Z,26.20
2022-10-03T23:48:51.061Z,26.27
2022-10-03T23:51:22.866Z,25.80
2022-10-03T23:53:52.754Z,26.73
2022-10-03T23:56:34.292Z,25.80
2022-10-03T23:59:12.983Z,26.57
